createdAt,value
2023-04-16T00:00:35.239Z,160.01
2023-04-16T00:01:35.249Z,175.69
2023-04-16T00:02:35.353Z,220.17
2023-04-16T00:03:35.559Z,323.45
2023-04-16T00:04:35.358Z,398.28
2023-04-16T00:05:35.271Z,400.93
2023-04-16T00:06:35.720Z,411.47
2023-04-16T00:07:35.342Z,345.78
2023-04-16T00:08:35.281Z,272.97
2023-04-16T00:09:35.322Z,221.18
2023-04-16T00:10:35.342Z,135.09
2023-04-16T00:11:35.339Z,112.35
2023-04-16T00:12:35.331Z,94.43
2023-04-16T00:13:35.360Z,92.92
2023-04-16T00:14:35.310Z,105.24
2023-04-16T00:15:35.316Z,121.65
2023-04-16T00:16:35.415Z,148.77
2023-04-16T00:17:35.386Z,215.96
2023-04-16T00:18:35.341Z,324.35
2023-04-16T00:19:35.310Z,362.65
2023-04-16T00:20:35.356Z,248.33
2023-04-16T00:21:35.359Z,222.89
2023-04-16T00:22:35.381Z,196.75
2023-04-16T00:23:35.481Z,197.84
2023-04-16T00:24:35.400Z,193.62
2023-04-16T00:25:35.455Z,173.43
2023-04-16T00:26:35.454Z,147.35
2023-04-16T00:27:35.478Z,136.06
2023-04-16T00:28:35.517Z,108.12
2023-04-16T00:29:35.535Z,68.01
2023-04-16T00:30:35.608Z,56.12
2023-04-16T00:31:35.607Z,55.29
2023-04-16T00:32:35.674Z,70.49
2023-04-16T00:33:35.647Z,87.16
2023-04-16T00:34:35.675Z,79.17
2023-04-16T00:35:35.706Z,75.92
2023-04-16T00:36:35.725Z,150.23
2023-04-16T00:37:35.739Z,118.11
2023-04-16T00:38:35.842Z,62.98
2023-04-16T00:39:35.822Z,45.92
2023-04-16T00:40:35.877Z,41.43
2023-04-16T00:41:35.918Z,41.12
2023-04-16T00:42:35.923Z,50.34
2023-04-16T00:43:35.940Z,50.72
2023-04-16T00:44:36.020Z,48.11
2023-04-16T00:45:35.975Z,41.97
2023-04-16T00:46:36.079Z,80.34
2023-04-16T00:47:36.198Z,73.64
2023-04-16T00:48:36.169Z,62.13
2023-04-16T00:49:36.167Z,64.34
2023-04-16T00:50:36.236Z,81.55
2023-04-16T00:51:36.285Z,145.77
2023-04-16T00:52:36.356Z,160.09
2023-04-16T00:53:36.360Z,171.68
2023-04-16T00:54:36.455Z,192.21
2023-04-16T00:55:36.451Z,105.82
2023-04-16T00:56:36.478Z,55.84
2023-04-16T00:57:36.541Z,47.14
2023-04-16T00:58:36.617Z,36.08
2023-04-16T00:59:36.601Z,32.75
2023-04-16T01:00:36.646Z,32.12
2023-04-16T01:01:36.668Z,32.58
2023-04-16T01:02:36.846Z,31.28
2023-04-16T01:03:36.877Z,32.45
2023-04-16T01:04:36.828Z,41.43
2023-04-16T01:05:36.768Z,65.09
2023-04-16T01:06:36.784Z,69.17
2023-04-16T01:07:36.816Z,60.24
2023-04-16T01:08:36.783Z,78.38
2023-04-16T01:09:36.859Z,105.54
2023-04-16T01:10:36.886Z,78.51
2023-04-16T01:11:36.882Z,50.96
2023-04-16T01:12:36.919Z,40.49
2023-04-16T01:13:36.957Z,40.15
2023-04-16T01:14:36.948Z,52.61
2023-04-16T01:15:36.955Z,68.26
2023-04-16T01:16:37.000Z,71.37
2023-04-16T01:17:37.010Z,67.50
2023-04-16T01:18:37.025Z,66.60
2023-04-16T01:19:37.023Z,68.90
2023-04-16T01:20:37.010Z,55.97
2023-04-16T01:21:37.111Z,52.06
2023-04-16T01:22:37.049Z,40.88
2023-04-16T01:23:37.077Z,33.11
2023-04-16T01:24:37.057Z,28.84
2023-04-16T01:25:37.020Z,32.28
2023-04-16T01:26:37.068Z,39.96
2023-04-16T01:27:37.071Z,44.46
2023-04-16T01:28:37.091Z,58.95
2023-04-16T01:29:37.102Z,88.11
2023-04-16T01:30:37.233Z,163.06
2023-04-16T01:31:37.221Z,306.54
2023-04-16T01:32:37.161Z,385.23
2023-04-16T01:33:37.147Z,442.38
2023-04-16T01:34:37.179Z,496.37
2023-04-16T01:35:37.515Z,406.43
2023-04-16T01:36:37.157Z,393.52
2023-04-16T01:37:37.185Z,405.17
2023-04-16T01:38:37.196Z,421.31
2023-04-16T01:39:37.165Z,367.26
2023-04-16T01:40:37.178Z,330.62
2023-04-16T01:41:37.201Z,342.52
2023-04-16T01:42:37.223Z,411.88
2023-04-16T01:43:40.098Z,949.06
2023-04-16T01:44:37.574Z,1000.00
2023-04-16T01:45:37.194Z,1000.00
2023-04-16T01:46:37.193Z,1000.00
2023-04-16T01:47:37.224Z,992.01
2023-04-16T01:48:37.158Z,762.94
2023-04-16T01:49:37.196Z,711.07
2023-04-16T01:50:37.144Z,820.36
2023-04-16T01:51:37.177Z,629.98
2023-04-16T01:52:37.210Z,512.21
2023-04-16T01:53:37.296Z,324.23
2023-04-16T01:54:37.171Z,209.66
2023-04-16T01:55:37.122Z,186.84
2023-04-16T01:56:37.079Z,128.80
2023-04-16T01:57:37.097Z,99.22
2023-04-16T01:58:37.093Z,126.72
2023-04-16T01:59:37.123Z,94.65
2023-04-16T02:00:37.115Z,85.65
2023-04-16T02:01:37.085Z,106.10
2023-04-16T02:02:37.242Z,100.75
2023-04-16T02:03:37.171Z,105.29
2023-04-16T02:04:37.094Z,151.20
2023-04-16T02:05:37.053Z,172.17
2023-04-16T02:06:37.079Z,210.24
2023-04-16T02:07:37.080Z,230.45
2023-04-16T02:08:37.029Z,252.15
2023-04-16T02:09:37.030Z,186.29
2023-04-16T02:10:37.041Z,113.75
2023-04-16T02:11:37.014Z,93.35
2023-04-16T02:12:37.019Z,119.61
2023-04-16T02:13:37.032Z,146.76
2023-04-16T02:14:37.305Z,213.53
2023-04-16T02:15:36.985Z,350.58
2023-04-16T02:16:37.020Z,309.09
2023-04-16T02:17:37.018Z,203.00
2023-04-16T02:18:36.912Z,151.73
2023-04-16T02:19:36.947Z,138.80
2023-04-16T02:20:36.959Z,121.59
2023-04-16T02:21:36.962Z,89.08
2023-04-16T02:22:36.941Z,70.47
2023-04-16T02:23:36.925Z,66.10
2023-04-16T02:24:36.936Z,62.73
2023-04-16T02:25:36.923Z,60.42
2023-04-16T02:26:36.882Z,49.34
2023-04-16T02:27:36.918Z,44.54
2023-04-16T02:28:36.898Z,57.91
2023-04-16T02:29:36.961Z,100.65
2023-04-16T02:30:36.969Z,175.24
2023-04-16T02:31:37.157Z,247.78
2023-04-16T02:32:37.104Z,207.41
2023-04-16T02:33:37.056Z,266.59
2023-04-16T02:34:37.114Z,266.44
2023-04-16T02:35:37.112Z,228.22
2023-04-16T02:36:37.173Z,210.06
2023-04-16T02:37:37.211Z,161.49
2023-04-16T02:38:37.241Z,182.42
2023-04-16T02:39:37.288Z,245.68
2023-04-16T02:40:37.310Z,278.30
2023-04-16T02:41:37.320Z,307.70
2023-04-16T02:42:37.314Z,337.61
2023-04-16T02:43:37.350Z,333.57
2023-04-16T02:44:37.359Z,315.20
2023-04-16T02:45:37.468Z,370.65
2023-04-16T02:46:37.394Z,362.05
2023-04-16T02:47:37.491Z,364.41
2023-04-16T02:48:37.424Z,219.01
2023-04-16T02:49:37.449Z,69.55
2023-04-16T02:50:37.498Z,21.86
2023-04-16T02:51:37.532Z,30.94
2023-04-16T02:52:37.553Z,44.16
2023-04-16T02:53:37.529Z,50.34
2023-04-16T02:54:37.606Z,72.62
2023-04-16T02:55:37.514Z,115.94
2023-04-16T02:56:37.560Z,259.72
2023-04-16T02:57:38.879Z,200.52
2023-04-16T02:58:37.584Z,305.14
2023-04-16T02:59:37.573Z,256.15
2023-04-16T03:00:37.615Z,148.02
2023-04-16T03:01:37.696Z,161.54
2023-04-16T03:02:37.680Z,162.19
2023-04-16T03:03:37.617Z,149.44
2023-04-16T03:04:37.696Z,285.12
2023-04-16T03:05:39.744Z,247.20
2023-04-16T03:06:37.651Z,196.12
2023-04-16T03:07:37.670Z,158.63
2023-04-16T03:08:37.636Z,171.67
2023-04-16T03:09:37.702Z,188.98
2023-04-16T03:10:37.615Z,162.24
2023-04-16T03:11:37.613Z,158.77
2023-04-16T03:12:37.613Z,139.49
2023-04-16T03:13:37.603Z,135.48
2023-04-16T03:14:37.654Z,157.94
2023-04-16T03:15:37.610Z,167.82
2023-04-16T03:16:37.633Z,194.53
2023-04-16T03:17:37.652Z,236.65
2023-04-16T03:18:37.550Z,285.61
2023-04-16T03:19:37.578Z,297.81
2023-04-16T03:20:37.548Z,336.72
2023-04-16T03:21:37.594Z,296.74
2023-04-16T03:22:37.551Z,254.54
2023-04-16T03:23:37.566Z,223.24
2023-04-16T03:24:37.560Z,180.28
2023-04-16T03:25:37.552Z,174.75
2023-04-16T03:26:37.539Z,169.93
2023-04-16T03:27:37.638Z,133.79
2023-04-16T03:28:37.488Z,123.10
2023-04-16T03:29:37.554Z,136.57
2023-04-16T03:30:37.504Z,187.78
2023-04-16T03:31:37.633Z,232.75
2023-04-16T03:32:37.540Z,208.46
2023-04-16T03:33:37.449Z,156.95
2023-04-16T03:34:37.515Z,131.39
2023-04-16T03:35:37.507Z,93.31
2023-04-16T03:36:37.475Z,54.71
2023-04-16T03:37:37.449Z,47.81
2023-04-16T03:38:37.444Z,53.82
2023-04-16T03:39:37.455Z,73.62
2023-04-16T03:40:37.400Z,109.12
2023-04-16T03:41:37.422Z,160.61
2023-04-16T03:42:37.428Z,204.47
2023-04-16T03:43:37.427Z,214.74
2023-04-16T03:44:37.375Z,202.03
2023-04-16T03:45:37.384Z,187.94
2023-04-16T03:46:37.524Z,184.23
2023-04-16T03:47:37.397Z,207.33
2023-04-16T03:48:37.365Z,221.34
2023-04-16T03:49:37.368Z,213.02
2023-04-16T03:50:37.390Z,191.18
2023-04-16T03:51:37.316Z,170.36
2023-04-16T03:52:37.333Z,174.90
2023-04-16T03:53:37.365Z,202.34
2023-04-16T03:54:37.350Z,224.65
2023-04-16T03:55:37.328Z,199.88
2023-04-16T03:56:37.304Z,215.08
2023-04-16T03:57:37.328Z,260.60
2023-04-16T03:58:37.296Z,344.53
2023-04-16T03:59:37.316Z,302.28
2023-04-16T04:00:37.277Z,284.39
2023-04-16T04:01:37.344Z,257.23
2023-04-16T04:02:37.365Z,255.10
2023-04-16T04:03:37.497Z,263.97
2023-04-16T04:04:37.463Z,191.49
2023-04-16T04:05:37.252Z,113.38
2023-04-16T04:06:37.255Z,88.54
2023-04-16T04:07:37.260Z,82.00
2023-04-16T04:08:37.250Z,105.67
2023-04-16T04:09:37.291Z,248.23
2023-04-16T04:10:37.219Z,566.83
2023-04-16T04:11:37.253Z,463.98
2023-04-16T04:12:37.194Z,579.34
2023-04-16T04:13:37.240Z,666.07
2023-04-16T04:14:37.226Z,641.45
2023-04-16T04:15:37.161Z,381.67
2023-04-16T04:16:37.230Z,229.61
2023-04-16T04:17:37.229Z,173.29
2023-04-16T04:18:37.192Z,171.18
2023-04-16T04:19:40.260Z,196.34
2023-04-16T04:20:38.133Z,167.82
2023-04-16T04:21:37.180Z,145.82
2023-04-16T04:22:37.163Z,150.80
2023-04-16T04:23:37.167Z,145.17
2023-04-16T04:24:37.183Z,117.04
2023-04-16T04:25:37.087Z,109.28
2023-04-16T04:26:37.118Z,107.73
2023-04-16T04:27:37.116Z,111.76
2023-04-16T04:28:37.096Z,106.19
2023-04-16T04:29:37.107Z,111.37
2023-04-16T04:30:37.070Z,150.04
2023-04-16T04:31:37.068Z,203.30
2023-04-16T04:32:37.158Z,228.54
2023-04-16T04:33:37.060Z,175.90
2023-04-16T04:34:37.095Z,169.60
2023-04-16T04:35:37.058Z,154.61
2023-04-16T04:36:37.043Z,157.62
2023-04-16T04:37:37.034Z,217.39
2023-04-16T04:38:37.039Z,287.46
2023-04-16T04:39:37.058Z,291.03
2023-04-16T04:40:37.052Z,306.64
2023-04-16T04:41:37.094Z,381.40
2023-04-16T04:42:37.145Z,425.24
2023-04-16T04:43:37.133Z,359.00
2023-04-16T04:44:37.220Z,308.79
2023-04-16T04:45:37.213Z,273.07
2023-04-16T04:46:37.190Z,238.56
2023-04-16T04:47:37.230Z,212.93
2023-04-16T04:48:37.194Z,164.33
2023-04-16T04:49:37.219Z,163.43
2023-04-16T04:50:37.244Z,157.77
2023-04-16T04:51:37.276Z,145.08
2023-04-16T04:52:37.288Z,144.44
2023-04-16T04:53:37.232Z,144.70
2023-04-16T04:54:37.235Z,160.32
2023-04-16T04:55:37.252Z,160.53
2023-04-16T04:56:37.251Z,112.41
2023-04-16T04:57:37.277Z,125.50
2023-04-16T04:58:37.246Z,136.55
2023-04-16T04:59:37.285Z,124.00
2023-04-16T05:00:37.269Z,115.41
2023-04-16T05:01:37.309Z,97.96
2023-04-16T05:02:37.289Z,94.91
2023-04-16T05:03:37.495Z,104.61
2023-04-16T05:04:37.342Z,77.74
2023-04-16T05:05:37.298Z,53.73
2023-04-16T05:06:37.336Z,49.50
2023-04-16T05:07:37.333Z,44.09
2023-04-16T05:08:37.344Z,45.76
2023-04-16T05:09:37.383Z,43.80
2023-04-16T05:10:37.365Z,51.14
2023-04-16T05:11:37.367Z,50.13
2023-04-16T05:12:37.373Z,52.15
2023-04-16T05:13:37.370Z,44.23
2023-04-16T05:14:37.420Z,46.25
2023-04-16T05:15:37.392Z,42.60
2023-04-16T05:16:37.467Z,32.24
2023-04-16T05:17:37.479Z,30.98
2023-04-16T05:18:37.406Z,35.89
2023-04-16T05:19:37.426Z,29.34
2023-04-16T05:20:37.467Z,23.59
2023-04-16T05:21:37.545Z,29.05
2023-04-16T05:22:37.500Z,24.02
2023-04-16T05:23:37.495Z,21.98
2023-04-16T05:24:37.551Z,26.93
2023-04-16T05:25:37.564Z,32.26
2023-04-16T05:26:37.539Z,34.42
2023-04-16T05:27:37.559Z,34.54
2023-04-16T05:28:37.588Z,35.67
2023-04-16T05:29:37.713Z,29.54
2023-04-16T05:30:37.659Z,31.33
2023-04-16T05:31:37.655Z,36.90
2023-04-16T05:32:37.728Z,35.35
2023-04-16T05:33:37.731Z,46.61
2023-04-16T05:34:37.745Z,62.84
2023-04-16T05:35:37.786Z,96.35
2023-04-16T05:36:37.745Z,124.06
2023-04-16T05:37:37.748Z,170.09
2023-04-16T05:38:37.774Z,167.90
2023-04-16T05:39:38.604Z,228.08
2023-04-16T05:40:37.844Z,241.91
2023-04-16T05:41:37.794Z,277.18
2023-04-16T05:42:37.855Z,270.90
2023-04-16T05:43:37.884Z,247.12
2023-04-16T05:44:37.918Z,153.65
2023-04-16T05:45:37.874Z,162.71
2023-04-16T05:46:38.108Z,203.69
2023-04-16T05:47:38.011Z,215.10
2023-04-16T05:48:38.014Z,208.09
2023-04-16T05:49:37.974Z,151.55
2023-04-16T05:50:38.006Z,97.24
2023-04-16T05:51:38.006Z,113.39
2023-04-16T05:52:38.034Z,170.33
2023-04-16T05:53:38.036Z,186.26
2023-04-16T05:54:38.067Z,240.27
2023-04-16T05:55:38.055Z,247.21
2023-04-16T05:56:38.106Z,241.41
2023-04-16T05:57:38.109Z,193.18
2023-04-16T05:58:38.094Z,201.48
2023-04-16T05:59:38.152Z,251.77
2023-04-16T06:00:38.159Z,200.97
2023-04-16T06:01:38.185Z,192.14
2023-04-16T06:02:38.215Z,203.29
2023-04-16T06:03:38.188Z,139.53
2023-04-16T06:04:38.169Z,130.55
2023-04-16T06:05:38.206Z,91.76
2023-04-16T06:06:38.214Z,90.28
2023-04-16T06:07:38.194Z,110.40
2023-04-16T06:08:38.206Z,139.88
2023-04-16T06:09:38.205Z,239.41
2023-04-16T06:10:38.232Z,144.78
2023-04-16T06:11:38.229Z,131.15
2023-04-16T06:12:38.229Z,106.56
2023-04-16T06:13:38.205Z,99.67
2023-04-16T06:14:38.230Z,144.39
2023-04-16T06:15:38.257Z,181.45
2023-04-16T06:16:38.240Z,180.43
2023-04-16T06:17:38.237Z,148.93
2023-04-16T06:18:38.313Z,116.55
2023-04-16T06:19:38.284Z,106.16
2023-04-16T06:20:38.404Z,139.72
2023-04-16T06:21:38.401Z,154.80
2023-04-16T06:22:38.392Z,152.61
2023-04-16T06:23:38.407Z,203.52
2023-04-16T06:24:38.413Z,222.10
2023-04-16T06:25:38.398Z,246.40
2023-04-16T06:26:38.389Z,321.40
2023-04-16T06:27:38.455Z,454.17
2023-04-16T06:28:38.469Z,502.32
2023-04-16T06:29:41.515Z,512.45
2023-04-16T06:30:38.479Z,472.35
2023-04-16T06:31:38.498Z,372.99
2023-04-16T06:32:38.513Z,379.35
2023-04-16T06:33:38.504Z,246.63
2023-04-16T06:34:38.474Z,128.05
2023-04-16T06:35:38.446Z,97.66
2023-04-16T06:36:38.458Z,64.91
2023-04-16T06:37:38.465Z,56.88
2023-04-16T06:38:38.474Z,57.91
2023-04-16T06:39:38.422Z,44.38
2023-04-16T06:40:38.424Z,50.88
2023-04-16T06:41:38.424Z,62.80
2023-04-16T06:42:38.389Z,80.33
2023-04-16T06:43:38.376Z,111.01
2023-04-16T06:44:38.415Z,126.59
2023-04-16T06:45:38.405Z,122.35
2023-04-16T06:46:38.417Z,135.87
2023-04-16T06:47:38.460Z,198.45
2023-04-16T06:48:38.345Z,204.94
2023-04-16T06:49:38.359Z,172.55
2023-04-16T06:50:38.365Z,176.78
2023-04-16T06:51:38.353Z,165.34
2023-04-16T06:52:38.316Z,143.55
2023-04-16T06:53:38.325Z,129.23
2023-04-16T06:54:38.302Z,164.11
2023-04-16T06:55:38.376Z,183.88
2023-04-16T06:56:38.389Z,214.95
2023-04-16T06:57:38.298Z,251.96
2023-04-16T06:58:38.304Z,275.17
2023-04-16T06:59:38.323Z,362.58
2023-04-16T07:00:38.350Z,538.55
2023-04-16T07:01:38.261Z,370.35
2023-04-16T07:02:38.398Z,213.71
2023-04-16T07:03:38.413Z,175.29
2023-04-16T07:04:38.236Z,169.55
2023-04-16T07:05:38.250Z,200.36
2023-04-16T07:06:38.255Z,166.67
2023-04-16T07:07:38.241Z,190.81
2023-04-16T07:08:38.233Z,219.99
2023-04-16T07:09:38.245Z,198.51
2023-04-16T07:10:38.166Z,155.76
2023-04-16T07:11:38.186Z,152.88
2023-04-16T07:12:38.179Z,143.77
2023-04-16T07:13:38.194Z,119.98
2023-04-16T07:14:38.219Z,79.68
2023-04-16T07:15:38.176Z,74.44
2023-04-16T07:16:38.252Z,80.20
2023-04-16T07:17:38.166Z,87.79
2023-04-16T07:18:38.173Z,142.93
2023-04-16T07:19:38.190Z,237.64
2023-04-16T07:20:38.145Z,131.85
2023-04-16T07:21:38.156Z,84.22
2023-04-16T07:22:38.159Z,95.18
2023-04-16T07:23:38.123Z,123.92
2023-04-16T07:24:38.139Z,157.47
2023-04-16T07:25:38.081Z,171.16
2023-04-16T07:26:38.144Z,198.77
2023-04-16T07:27:38.203Z,195.95
2023-04-16T07:28:38.299Z,155.09
2023-04-16T07:29:38.352Z,151.12
2023-04-16T07:30:38.435Z,173.52
2023-04-16T07:31:38.533Z,156.57
2023-04-16T07:32:38.571Z,140.69
2023-04-16T07:33:38.565Z,123.03
2023-04-16T07:34:38.637Z,154.15
2023-04-16T07:35:38.650Z,115.76
2023-04-16T07:36:38.669Z,82.44
2023-04-16T07:37:38.743Z,70.78
2023-04-16T07:38:38.750Z,49.88
2023-04-16T07:39:38.836Z,41.24
2023-04-16T07:40:38.865Z,31.87
2023-04-16T07:41:38.858Z,19.32
2023-04-16T07:42:38.929Z,11.90
2023-04-16T07:43:38.979Z,10.06
2023-04-16T07:44:39.014Z,9.44
2023-04-16T07:45:40.060Z,9.39
2023-04-16T07:46:46.232Z,10.53
2023-04-16T07:47:40.180Z,9.85
2023-04-16T07:48:39.096Z,10.69
2023-04-16T07:49:39.129Z,11.69
2023-04-16T07:50:39.108Z,13.32
2023-04-16T07:51:39.089Z,11.15
2023-04-16T07:52:39.057Z,10.50
2023-04-16T07:53:39.087Z,10.54
2023-04-16T07:54:39.111Z,10.11
2023-04-16T07:55:39.057Z,8.93
2023-04-16T07:56:39.067Z,9.84
2023-04-16T07:57:39.034Z,12.15
2023-04-16T07:58:39.069Z,14.14
2023-04-16T07:59:39.177Z,13.95
2023-04-16T08:00:39.192Z,12.59
2023-04-16T08:01:39.256Z,9.78
2023-04-16T08:02:39.389Z,10.23
2023-04-16T08:03:39.480Z,8.01
2023-04-16T08:04:39.398Z,9.13
2023-04-16T08:05:39.389Z,7.80
2023-04-16T08:06:39.390Z,4.56
2023-04-16T08:07:39.410Z,3.84
2023-04-16T08:08:39.457Z,4.61
2023-04-16T08:09:39.470Z,6.17
2023-04-16T08:10:39.440Z,5.84
2023-04-16T08:11:39.477Z,6.46
2023-04-16T08:12:39.511Z,8.60
2023-04-16T08:13:39.482Z,8.97
2023-04-16T08:14:39.493Z,10.62
2023-04-16T08:15:39.580Z,13.06
2023-04-16T08:16:39.516Z,10.90
2023-04-16T08:17:39.609Z,10.62
2023-04-16T08:18:39.527Z,8.84
2023-04-16T08:19:39.527Z,8.36
2023-04-16T08:20:39.567Z,4.49
2023-04-16T08:21:39.570Z,3.04
2023-04-16T08:22:39.600Z,3.42
2023-04-16T08:23:39.584Z,3.57
2023-04-16T08:24:39.598Z,4.92
2023-04-16T08:25:39.687Z,6.58
2023-04-16T08:26:39.641Z,6.96
2023-04-16T08:27:39.882Z,4.83
2023-04-16T08:28:39.793Z,3.39
2023-04-16T08:29:39.848Z,3.89
2023-04-16T08:30:39.892Z,4.28
2023-04-16T08:31:40.014Z,5.18
2023-04-16T08:32:40.047Z,6.05
2023-04-16T08:33:40.016Z,7.48
2023-04-16T08:34:40.078Z,8.38
2023-04-16T08:35:40.150Z,10.44
2023-04-16T08:36:40.152Z,7.13
2023-04-16T08:37:40.189Z,6.65
2023-04-16T08:38:40.230Z,9.01
2023-04-16T08:39:40.212Z,9.03
2023-04-16T08:40:40.263Z,9.04
2023-04-16T08:41:40.228Z,8.25
2023-04-16T08:42:40.258Z,8.69
2023-04-16T08:43:40.291Z,8.17
2023-04-16T08:44:40.288Z,6.21
2023-04-16T08:45:40.312Z,5.61
2023-04-16T08:46:40.445Z,6.09
2023-04-16T08:47:40.315Z,7.04
2023-04-16T08:48:40.342Z,6.95
2023-04-16T08:49:40.292Z,6.46
2023-04-16T08:50:40.321Z,7.27
2023-04-16T08:51:40.320Z,5.72
2023-04-16T08:52:40.321Z,4.57
2023-04-16T08:53:40.309Z,5.47
2023-04-16T08:54:40.340Z,6.02
2023-04-16T08:55:40.422Z,6.75
2023-04-16T08:56:42.886Z,5.98
2023-04-16T08:57:40.354Z,7.10
2023-04-16T08:58:40.338Z,6.52
2023-04-16T08:59:40.366Z,7.15
2023-04-16T09:00:40.357Z,7.65
2023-04-16T09:01:40.348Z,7.49
2023-04-16T09:02:40.681Z,10.50
2023-04-16T09:03:40.360Z,12.92
2023-04-16T09:04:40.377Z,7.91
2023-04-16T09:05:40.293Z,7.10
2023-04-16T09:06:40.297Z,9.73
2023-04-16T09:07:40.287Z,14.57
2023-04-16T09:08:40.278Z,16.48
2023-04-16T09:09:40.218Z,15.72
2023-04-16T09:10:40.295Z,13.74
2023-04-16T09:11:40.324Z,10.06
2023-04-16T09:12:40.253Z,10.03
2023-04-16T09:13:40.242Z,11.00
2023-04-16T09:14:40.248Z,16.10
2023-04-16T09:15:40.246Z,13.85
2023-04-16T09:16:40.379Z,11.87
2023-04-16T09:17:40.275Z,13.03
2023-04-16T09:18:40.191Z,8.71
2023-04-16T09:19:40.182Z,12.96
2023-04-16T09:20:40.995Z,16.37
2023-04-16T09:21:40.199Z,24.81
2023-04-16T09:22:40.230Z,17.74
2023-04-16T09:23:40.155Z,13.82
2023-04-16T09:24:40.154Z,15.71
2023-04-16T09:25:40.208Z,13.37
2023-04-16T09:26:40.163Z,7.72
2023-04-16T09:27:40.140Z,6.47
2023-04-16T09:28:40.189Z,4.38
2023-04-16T09:29:40.178Z,3.48
2023-04-16T09:30:40.175Z,3.82
2023-04-16T09:31:40.161Z,2.50
2023-04-16T09:32:40.179Z,1.82
2023-04-16T09:33:40.096Z,1.47
2023-04-16T09:34:40.094Z,1.96
2023-04-16T09:35:40.105Z,2.18
2023-04-16T09:36:40.083Z,2.36
2023-04-16T09:37:40.106Z,2.62
2023-04-16T09:38:40.080Z,3.09
2023-04-16T09:39:40.078Z,4.64
2023-04-16T09:40:40.102Z,4.52
2023-04-16T09:41:40.037Z,7.32
2023-04-16T09:42:40.059Z,11.04
2023-04-16T09:43:40.074Z,11.56
2023-04-16T09:44:40.079Z,9.15
2023-04-16T09:45:40.130Z,6.24
2023-04-16T09:46:40.018Z,5.14
2023-04-16T09:47:40.110Z,4.13
2023-04-16T09:48:40.024Z,2.94
2023-04-16T09:49:39.991Z,2.17
2023-04-16T09:50:39.994Z,3.00
2023-04-16T09:51:40.025Z,5.11
2023-04-16T09:52:39.983Z,6.84
2023-04-16T09:53:39.969Z,6.73
2023-04-16T09:54:40.058Z,5.53
2023-04-16T09:55:40.022Z,3.79
2023-04-16T09:56:39.972Z,3.59
2023-04-16T09:57:39.941Z,4.53
2023-04-16T09:58:39.929Z,3.92
2023-04-16T09:59:39.951Z,3.00
2023-04-16T10:00:43.661Z,3.20
2023-04-16T10:01:40.033Z,3.22
2023-04-16T10:02:39.981Z,3.42
2023-04-16T10:03:40.220Z,3.61
2023-04-16T10:04:39.900Z,3.33
2023-04-16T10:05:39.935Z,2.86
2023-04-16T10:06:39.881Z,4.88
2023-04-16T10:07:39.901Z,6.74
2023-04-16T10:08:39.880Z,6.35
2023-04-16T10:09:39.871Z,5.24
2023-04-16T10:10:39.880Z,5.62
2023-04-16T10:11:39.864Z,4.08
2023-04-16T10:12:39.838Z,4.48
2023-04-16T10:13:39.873Z,5.36
2023-04-16T10:14:39.867Z,7.79
2023-04-16T10:15:39.858Z,8.97
2023-04-16T10:16:39.950Z,11.52
2023-04-16T10:17:39.897Z,13.71
2023-04-16T10:18:39.802Z,10.87
2023-04-16T10:19:39.778Z,9.05
2023-04-16T10:20:39.781Z,11.30
2023-04-16T10:21:39.797Z,14.47
2023-04-16T10:22:39.805Z,27.68
2023-04-16T10:23:39.790Z,21.39
2023-04-16T10:24:39.772Z,14.58
2023-04-16T10:25:39.814Z,18.46
2023-04-16T10:26:39.778Z,11.58
2023-04-16T10:27:39.728Z,11.37
2023-04-16T10:28:39.816Z,17.94
2023-04-16T10:29:39.709Z,18.68
2023-04-16T10:30:39.842Z,16.10
2023-04-16T10:31:39.729Z,14.24
2023-04-16T10:32:39.754Z,13.28
2023-04-16T10:33:39.722Z,20.21
2023-04-16T10:34:39.681Z,16.60
2023-04-16T10:35:39.695Z,10.02
2023-04-16T10:36:39.688Z,8.03
2023-04-16T10:37:39.640Z,8.22
2023-04-16T10:38:39.668Z,11.47
2023-04-16T10:39:39.684Z,14.43
2023-04-16T10:40:39.682Z,12.66
2023-04-16T10:41:39.632Z,14.38
2023-04-16T10:42:39.681Z,17.78
2023-04-16T10:43:39.746Z,13.98
2023-04-16T10:44:41.888Z,8.34
2023-04-16T10:45:39.792Z,8.63
2023-04-16T10:46:39.907Z,9.07
2023-04-16T10:47:39.808Z,10.67
2023-04-16T10:48:49.629Z,14.00
2023-04-16T10:49:40.766Z,8.00
2023-04-16T10:50:39.756Z,12.80
2023-04-16T10:51:39.767Z,15.92
2023-04-16T10:52:39.772Z,19.57
2023-04-16T10:53:39.759Z,11.92
2023-04-16T10:54:39.772Z,23.89
2023-04-16T10:55:39.735Z,27.86
2023-04-16T10:56:39.694Z,15.49
2023-04-16T10:57:39.724Z,8.57
2023-04-16T10:58:39.724Z,10.87
2023-04-16T10:59:39.713Z,11.35
2023-04-16T11:00:39.752Z,18.36
2023-04-16T11:01:39.971Z,25.72
2023-04-16T11:02:39.887Z,18.98
2023-04-16T11:03:40.041Z,12.58
2023-04-16T11:04:39.974Z,12.22
2023-04-16T11:05:39.942Z,36.97
2023-04-16T11:06:39.898Z,46.84
2023-04-16T11:07:39.999Z,48.66
2023-04-16T11:08:53.247Z,19.19
2023-04-16T11:09:40.950Z,11.88
2023-04-16T11:10:39.944Z,3.92
2023-04-16T11:11:40.028Z,3.29
2023-04-16T11:12:39.990Z,3.37
2023-04-16T11:13:40.657Z,2.15
2023-04-16T11:14:39.939Z,1.95
2023-04-16T11:15:39.998Z,1.96
2023-04-16T11:16:39.883Z,2.35
2023-04-16T11:17:40.022Z,3.17
2023-04-16T11:18:41.637Z,2.97
2023-04-16T11:19:40.900Z,2.30
2023-04-16T11:20:39.894Z,2.24
2023-04-16T11:21:39.929Z,2.54
2023-04-16T11:22:39.827Z,3.15
2023-04-16T11:23:39.865Z,2.44
2023-04-16T11:24:39.866Z,2.45
2023-04-16T11:25:39.835Z,3.59
2023-04-16T11:26:39.822Z,4.40
2023-04-16T11:27:39.904Z,7.34
2023-04-16T11:28:39.907Z,13.16
2023-04-16T11:29:39.936Z,9.97
2023-04-16T11:30:39.967Z,9.46
2023-04-16T11:31:40.069Z,11.17
2023-04-16T11:32:40.087Z,9.23
2023-04-16T11:33:40.119Z,11.03
2023-04-16T11:34:40.216Z,11.75
2023-04-16T11:35:40.296Z,15.87
2023-04-16T11:36:40.287Z,8.24
2023-04-16T11:37:40.348Z,5.25
2023-04-16T11:38:40.372Z,6.93
2023-04-16T11:39:40.358Z,6.18
2023-04-16T11:40:40.456Z,6.12
2023-04-16T11:41:40.525Z,6.32
2023-04-16T11:42:40.589Z,6.29
2023-04-16T11:43:40.532Z,4.04
2023-04-16T11:44:40.554Z,3.46
2023-04-16T11:45:40.602Z,3.45
2023-04-16T11:46:40.769Z,3.51
2023-04-16T11:47:40.613Z,4.86
2023-04-16T11:48:40.715Z,6.10
2023-04-16T11:49:40.634Z,4.45
2023-04-16T11:50:40.661Z,5.95
2023-04-16T11:51:40.651Z,6.86
2023-04-16T11:52:40.696Z,7.96
2023-04-16T11:53:40.739Z,8.58
2023-04-16T11:54:40.727Z,8.14
2023-04-16T11:55:40.820Z,7.86
2023-04-16T11:56:40.802Z,9.71
2023-04-16T11:57:40.917Z,9.83
2023-04-16T11:58:43.272Z,4.42
2023-04-16T12:00:02.166Z,4.37
2023-04-16T12:00:42.160Z,3.77
2023-04-16T12:01:41.248Z,3.26
2023-04-16T12:02:41.312Z,2.84
2023-04-16T12:03:41.300Z,5.06
2023-04-16T12:04:41.185Z,4.48
2023-04-16T12:05:41.113Z,4.12
2023-04-16T12:06:41.101Z,4.67
2023-04-16T12:07:41.065Z,4.33
2023-04-16T12:08:41.166Z,2.73
2023-04-16T12:09:41.315Z,2.69
2023-04-16T12:10:41.253Z,3.00
2023-04-16T12:11:41.303Z,2.70
2023-04-16T12:12:41.381Z,3.75
2023-04-16T12:13:41.440Z,4.39
2023-04-16T12:14:41.378Z,3.83
2023-04-16T12:15:41.404Z,5.66
2023-04-16T12:16:41.425Z,5.49
2023-04-16T12:17:41.448Z,5.27
2023-04-16T12:18:41.486Z,6.58
2023-04-16T12:19:41.450Z,3.97
2023-04-16T12:20:41.525Z,2.60
2023-04-16T12:21:41.553Z,2.30
2023-04-16T12:22:41.604Z,2.13
2023-04-16T12:23:41.635Z,1.45
2023-04-16T12:24:41.637Z,1.78
2023-04-16T12:25:41.724Z,2.32
2023-04-16T12:26:41.756Z,8.71
2023-04-16T12:27:41.882Z,13.17
2023-04-16T12:28:41.950Z,6.30
2023-04-16T12:29:41.956Z,4.01
2023-04-16T12:30:42.054Z,4.34
2023-04-16T12:31:42.021Z,5.05
2023-04-16T12:32:42.111Z,4.09
2023-04-16T12:33:42.059Z,3.25
2023-04-16T12:34:49.090Z,2.78
2023-04-16T12:35:43.075Z,2.79
2023-04-16T12:36:42.049Z,2.80
2023-04-16T12:37:42.135Z,2.32
2023-04-16T12:38:42.040Z,2.77
2023-04-16T12:39:42.108Z,4.47
2023-04-16T12:40:42.110Z,4.11
2023-04-16T12:41:42.044Z,4.46
2023-04-16T12:42:42.059Z,8.51
2023-04-16T12:43:41.987Z,9.21
2023-04-16T12:44:42.041Z,9.73
2023-04-16T12:45:42.024Z,13.43
2023-04-16T12:46:42.035Z,18.10
2023-04-16T12:47:42.090Z,7.55
2023-04-16T12:48:42.033Z,4.90